createdAt,value
2019-03-24T00:04:13.387Z,6.00
2019-03-24T00:10:16.364Z,5.90
2019-03-24T00:16:19.149Z,5.70
2019-03-24T00:22:21.969Z,5.60
2019-03-24T00:28:25.053Z,5.60
2019-03-24T00:34:27.997Z,5.50
2019-03-24T00:40:30.790Z,5.40
2019-03-24T00:46:33.588Z,5.40
2019-03-24T00:52:36.552Z,5.40
2019-03-24T00:58:39.456Z,5.40
2019-03-24T01:04:42.337Z,5.30
2019-03-24T01:10:45.226Z,5.30
2019-03-24T01:16:48.058Z,5.20
2019-03-24T01:22:50.912Z,5.30
2019-03-24T01:28:53.703Z,5.20
2019-03-24T01:34:56.779Z,5.20
2019-03-24T01:40:59.599Z,5.10
2019-03-24T01:47:02.363Z,5.00
2019-03-24T01:53:05.324Z,5.00
2019-03-24T01:59:08.244Z,4.90
2019-03-24T02:05:11.297Z,4.80
2019-03-24T02:11:14.287Z,4.80
2019-03-24T02:17:17.215Z,4.70
2019-03-24T02:23:20.186Z,4.60
2019-03-24T02:29:22.978Z,4.60
2019-03-24T02:35:25.873Z,4.50
2019-03-24T02:41:28.751Z,4.50
2019-03-24T02:47:31.766Z,4.40
2019-03-24T02:53:34.608Z,4.40
2019-03-24T02:59:37.506Z,4.40
2019-03-24T03:05:40.485Z,4.40
2019-03-24T03:11:43.381Z,4.30
2019-03-24T03:17:46.235Z,4.30
2019-03-24T03:23:52.395Z,4.20
2019-03-24T03:29:55.237Z,4.20
2019-03-24T03:35:58.371Z,4.10
2019-03-24T03:42:01.414Z,4.10
2019-03-24T03:48:04.216Z,3.90
2019-03-24T03:54:07.240Z,3.80
2019-03-24T04:00:11.326Z,3.80
2019-03-24T04:06:14.249Z,3.70
2019-03-24T04:12:17.225Z,3.70
2019-03-24T04:18:20.153Z,3.60
2019-03-24T04:24:23.612Z,3.60
2019-03-24T04:30:26.524Z,3.60
2019-03-24T04:36:29.383Z,3.60
2019-03-24T04:42:32.211Z,3.70
2019-03-24T04:48:35.056Z,3.60
2019-03-24T04:54:38.061Z,3.60
2019-03-24T05:00:41.191Z,3.50
2019-03-24T05:06:44.610Z,3.40
2019-03-24T05:12:47.496Z,3.40
2019-03-24T05:18:50.469Z,3.40
2019-03-24T05:24:53.445Z,3.50
2019-03-24T05:30:56.307Z,3.60
2019-03-24T05:36:59.429Z,3.70
2019-03-24T05:43:02.393Z,3.80
2019-03-24T05:49:05.324Z,4.00
2019-03-24T05:55:08.195Z,4.20
2019-03-24T06:01:11.190Z,4.40
2019-03-24T06:07:14.070Z,4.60
2019-03-24T06:13:16.891Z,4.80
2019-03-24T06:19:19.834Z,5.20
2019-03-24T06:25:23.232Z,5.50
2019-03-24T06:31:27.283Z,5.80
2019-03-24T06:37:30.148Z,6.30
2019-03-24T06:43:33.023Z,7.20
2019-03-24T06:49:35.823Z,8.20
2019-03-24T06:55:38.626Z,9.70
2019-03-24T07:01:41.363Z,10.90
2019-03-24T07:07:44.300Z,11.60
2019-03-24T07:13:47.184Z,12.80
2019-03-24T07:19:50.253Z,14.70
2019-03-24T07:25:53.264Z,15.60
2019-03-24T07:31:56.164Z,15.70
2019-03-24T07:37:59.200Z,16.50
2019-03-24T07:44:02.066Z,17.10
2019-03-24T07:50:06.280Z,17.00
2019-03-24T07:56:09.227Z,17.60
2019-03-24T08:02:12.280Z,18.50
2019-03-24T08:08:15.274Z,19.20
2019-03-24T08:14:18.311Z,19.60
2019-03-24T08:20:21.246Z,20.10
2019-03-24T08:26:26.249Z,20.20
2019-03-24T08:32:29.492Z,20.00
2019-03-24T08:38:32.395Z,20.10
2019-03-24T08:44:35.251Z,20.50
2019-03-24T08:50:38.223Z,21.20
2019-03-24T08:56:41.194Z,21.40
2019-03-24T09:02:44.295Z,21.10
2019-03-24T09:08:49.015Z,21.20
2019-03-24T09:14:51.972Z,21.50
2019-03-24T09:20:54.933Z,20.20
2019-03-24T09:26:59.055Z,20.70
2019-03-24T09:33:02.049Z,21.80
2019-03-24T09:39:06.328Z,22.10
2019-03-24T09:45:09.341Z,22.00
2019-03-24T09:51:12.200Z,21.20
2019-03-24T09:57:15.286Z,21.00
2019-03-24T10:03:18.296Z,21.40
2019-03-24T10:09:21.146Z,21.10
2019-03-24T10:15:24.031Z,21.40
2019-03-24T10:21:27.026Z,21.10
2019-03-24T10:27:30.449Z,21.00
2019-03-24T10:33:33.254Z,20.70
2019-03-24T10:39:36.076Z,20.40
2019-03-24T10:45:39.043Z,20.60
2019-03-24T10:51:42.082Z,20.20
2019-03-24T10:57:44.983Z,19.80
2019-03-24T11:03:48.629Z,19.50
2019-03-24T11:09:51.440Z,19.10
2019-03-24T11:15:54.422Z,19.30
2019-03-24T11:21:57.395Z,19.30
2019-03-24T11:28:00.448Z,19.20
2019-03-24T11:34:03.408Z,19.20
2019-03-24T11:40:07.020Z,18.80
2019-03-24T11:46:09.830Z,18.60
2019-03-24T11:52:12.568Z,18.90
2019-03-24T11:58:15.567Z,19.00
2019-03-24T12:04:18.851Z,18.90
2019-03-24T12:10:21.762Z,18.50
2019-03-24T12:16:25.004Z,18.70
2019-03-24T12:22:28.392Z,18.90
2019-03-24T12:28:31.498Z,19.30
2019-03-24T12:34:34.381Z,19.50
2019-03-24T12:40:38.594Z,19.50
2019-03-24T12:46:42.499Z,19.70
2019-03-24T12:52:45.320Z,19.90
2019-03-24T12:58:48.088Z,19.80
2019-03-24T13:04:50.927Z,19.60
2019-03-24T13:10:53.998Z,19.80
2019-03-24T13:16:56.854Z,20.10
2019-03-24T13:23:00.065Z,20.30
2019-03-24T13:29:03.125Z,20.10
2019-03-24T13:35:06.221Z,20.10
2019-03-24T13:41:09.220Z,20.30
2019-03-24T13:47:13.417Z,20.40
2019-03-24T13:53:17.337Z,20.70
2019-03-24T13:59:20.604Z,20.80
2019-03-24T14:05:23.423Z,20.90
2019-03-24T14:11:26.721Z,21.00
2019-03-24T14:17:29.596Z,21.00
2019-03-24T14:23:37.584Z,20.90
2019-03-24T14:29:44.963Z,20.90
2019-03-24T14:35:49.094Z,20.90
2019-03-24T14:41:52.241Z,20.70
2019-03-24T14:47:55.786Z,20.60
2019-03-24T14:53:58.934Z,20.60
2019-03-24T15:00:02.449Z,20.70
2019-03-24T15:06:05.439Z,20.60
2019-03-24T15:12:13.258Z,20.60
2019-03-24T15:18:16.016Z,20.60
2019-03-24T15:24:18.951Z,20.50
2019-03-24T15:30:22.048Z,20.30
2019-03-24T15:36:24.995Z,20.00
2019-03-24T15:42:27.881Z,19.50
2019-03-24T15:48:30.692Z,19.20
2019-03-24T15:54:33.684Z,19.00
2019-03-24T16:00:44.471Z,18.90
2019-03-24T16:06:47.347Z,18.70
2019-03-24T16:12:50.408Z,18.50
2019-03-24T16:18:53.184Z,18.50
2019-03-24T16:24:56.075Z,18.50
2019-03-24T16:30:58.979Z,18.40
2019-03-24T16:37:02.287Z,18.30
2019-03-24T16:43:05.857Z,18.20
2019-03-24T16:49:09.447Z,18.00
2019-03-24T16:55:12.594Z,17.80
2019-03-24T17:01:15.584Z,17.50
2019-03-24T17:07:19.542Z,17.20
2019-03-24T17:13:22.801Z,16.90
2019-03-24T17:19:26.936Z,16.60
2019-03-24T17:25:30.903Z,16.30
2019-03-24T17:31:34.194Z,16.00
2019-03-24T17:37:37.243Z,15.80
2019-03-24T17:43:40.424Z,15.60
2019-03-24T17:49:43.676Z,15.40
2019-03-24T17:55:48.113Z,14.70
2019-03-24T18:01:51.118Z,14.00
2019-03-24T18:07:54.763Z,13.60
2019-03-24T18:13:57.756Z,13.30
2019-03-24T18:20:00.905Z,13.10
2019-03-24T18:26:04.292Z,12.80
2019-03-24T18:32:07.724Z,12.70
2019-03-24T18:38:10.785Z,12.50
2019-03-24T18:44:13.785Z,12.40
2019-03-24T18:50:17.102Z,12.20
2019-03-24T18:56:20.563Z,12.10
2019-03-24T19:02:23.969Z,12.00
2019-03-24T19:08:28.136Z,11.90
2019-03-24T19:14:31.444Z,11.80
2019-03-24T19:20:34.812Z,11.80
2019-03-24T19:26:37.953Z,11.70
2019-03-24T19:32:41.706Z,11.60
2019-03-24T19:38:44.861Z,11.60
2019-03-24T19:44:47.882Z,11.60
2019-03-24T19:50:52.648Z,11.60
2019-03-24T19:56:56.381Z,11.60
2019-03-24T20:02:59.487Z,11.70
2019-03-24T20:09:04.073Z,11.70
2019-03-24T20:15:10.032Z,11.70
2019-03-24T20:21:13.269Z,11.80
2019-03-24T20:27:16.735Z,11.90
2019-03-24T20:33:19.629Z,12.00
2019-03-24T20:39:22.900Z,12.00
2019-03-24T20:45:26.764Z,12.00
2019-03-24T20:51:29.969Z,12.10
2019-03-24T20:57:33.102Z,12.10
2019-03-24T21:03:36.165Z,12.00
2019-03-24T21:09:40.382Z,12.00
2019-03-24T21:15:43.249Z,12.10
2019-03-24T21:21:46.761Z,12.00
2019-03-24T21:27:50.719Z,11.90
2019-03-24T21:33:55.000Z,11.90
2019-03-24T21:39:57.805Z,12.00
2019-03-24T21:46:01.820Z,12.00
2019-03-24T21:52:05.941Z,12.00
2019-03-24T21:58:09.249Z,12.00
2019-03-24T22:04:12.252Z,12.00
2019-03-24T22:10:15.088Z,12.10
2019-03-24T22:16:17.896Z,12.00
2019-03-24T22:22:20.732Z,12.10
2019-03-24T22:28:23.651Z,12.00
2019-03-24T22:34:26.644Z,12.00
2019-03-24T22:40:31.563Z,12.00
2019-03-24T22:46:34.523Z,11.90
2019-03-24T22:52:37.436Z,12.00
2019-03-24T22:58:40.368Z,11.90
2019-03-24T23:04:43.363Z,11.80
2019-03-24T23:10:46.167Z,11.80
2019-03-24T23:16:49.086Z,11.60
2019-03-24T23:22:51.876Z,11.60
2019-03-24T23:28:54.768Z,11.60
2019-03-24T23:34:57.805Z,11.70
2019-03-24T23:41:00.722Z,11.70
2019-03-24T23:47:03.779Z,11.70
2019-03-24T23:53:06.760Z,11.40
2019-03-24T23:59:09.690Z,11.30
